Weather at Hobart International Airport

Public forecast

Using degrees Celsius for public forecast. Weather courtesy of forecast.io.

Current aviation weather report (METAR) for Hobart International Airport

2024/06/16 12:00 (retrieved 21 minutes ago)

YMHB 161200Z 19011KT 9999 VCSH FEW022 BKN048 10/04 Q1023 RF000/0002

Aviation forecast (TAF) for Hobart International Airport

2024/06/16 12:51 (retrieved 0 seconds ago)

TAF YMHB 161115Z 1612/1712 19012KT 9999 -SHRA SCT025 SCT035 INTER 1612/1712 5000 SHRA SCT015 BKN025